LFRH

Lorient South Brittany (Bretagne Sud) Airport

Lorient/Lann/Bihoué, France
TAF LFRH 230500Z 2306/2406 33003KT 9999 OVC031 BECMG 2312/2314 24010G20KT CAVOK BECMG 2318/2320 27010KT BECMG 2400/2402 BKN015
Issued Valid From Valid To
Apr-23 @ 05:00 UTC
(5 hours ago)
Apr-23 @ 06:00 UTC
(4 hours ago)
Apr-24 @ 06:00 UTC
(in 20 hours)
Apr-23 @ 06:00 to Apr-23 @ 12:00
TAF LFRH 230500Z 2306/2406 33003KT 9999 OVC031
Wind Visibility Clouds
330° at 3 knots 10,000+ meters
  • Overcast at 3,100' AGL
Becoming Apr-23 @ 12:00 to Apr-23 @ 18:00
BECMG 2312/2314 24010G20KT CAVOK
Wind Visibility Clouds Conditions
240° at 10 knots
 Gusting to 20 knots
10,000+ meters
  • No significant clouds
Becoming Apr-23 @ 18:00 to Apr-24 @ 00:00
BECMG 2318/2320 27010KT
Wind Visibility Clouds Conditions
270° at 10 knots 10,000+ meters
  • No significant clouds
Becoming Apr-24 @ 00:00 to Apr-24 @ 06:00
BECMG 2400/2402 BKN015
Wind Visibility Clouds Conditions
270° at 10 knots 10,000+ meters
  • Broken at 1,500' AGL
TAF LFRH 230500Z 2306/2406 33003KT 9999 OVC031 BECMG 2312/2314 24010G20KT CAVOK BECMG 2318/2320 27010KT BECMG 2400/2402 BKN015
Issued Apr-23 @ 05:00 UTC
(5 hours ago)
Valid From Apr-23 @ 06:00 UTC
(4 hours ago)
Valid To Apr-24 @ 06:00 UTC
(in 20 hours)
Apr-23 @ 06:00 - Apr-23 @ 12:00
Wind Visibility
330° at 3 knots 10,000+ meters
Clouds
  • Overcast at 3,100' AGL
Becoming Apr-23 @ 12:00 - Apr-23 @ 18:00
Wind Visibility
240° at 10 knots
 Gusting to 20 knots
10,000+ meters
Clouds
  • No significant clouds
Conditions
Becoming Apr-23 @ 18:00 - Apr-24 @ 00:00
Wind Visibility
270° at 10 knots 10,000+ meters
Clouds
  • No significant clouds
Conditions
Becoming Apr-24 @ 00:00 - Apr-24 @ 06:00
Wind Visibility
270° at 10 knots 10,000+ meters
Clouds
  • Broken at 1,500' AGL
Conditions